Time;durP1;ratioP1;P1;durP2;ratioP2;P2;SDS_P1;SDS_P2;PMS_P1;PMS_P2;Temp;Humidity;BMP_temperature;BMP_pressure;BME280_temperature;BME280_humidity;BME280_pressure;Samples;Min_cycle;Max_cycle;Signal;HPM_P1;HPM_P2
2021/03/09 00:02:16;;;;;;;5.38;2.60;;;;;;;25.45;26.15;96722.75;4997113;28;20025;-33
2021/03/09 00:04:42;;;;;;;5.53;2.65;;;;;;;25.45;25.93;96722.75;4999151;28;20503;-32
2021/03/09 00:07:07;;;;;;;6.13;2.50;;;;;;;25.44;25.97;96728.91;4995138;28;20044;-32
2021/03/09 00:09:33;;;;;;;11.98;2.60;;;;;;;25.44;25.91;96723.69;4999274;28;20021;-33
2021/03/09 00:11:58;;;;;;;4.70;2.50;;;;;;;25.43;26.13;96717.56;4997753;28;20501;-32
2021/03/09 00:14:23;;;;;;;4.20;2.50;;;;;;;25.43;26.03;96727.19;5000466;28;20041;-34
2021/03/09 00:16:49;;;;;;;5.95;2.53;;;;;;;25.42;25.96;96730.75;4999424;28;20342;-32
2021/03/09 00:19:14;;;;;;;5.90;2.70;;;;;;;25.42;26.13;96728.13;4998310;28;20030;-32
2021/03/09 00:21:40;;;;;;;5.60;2.58;;;;;;;25.42;26.12;96722.88;4982315;28;20026;-33
2021/03/09 00:24:05;;;;;;;7.03;2.60;;;;;;;25.42;25.93;96720.25;4983485;28;20549;-31
2021/03/09 00:26:31;;;;;;;4.28;2.47;;;;;;;25.41;26.12;96719.44;5002304;28;20042;-33
2021/03/09 00:28:56;;;;;;;9.20;2.17;;;;;;;25.41;26.10;96719.44;4994976;28;20033;-33
2021/03/09 00:31:21;;;;;;;4.85;2.35;;;;;;;25.41;26.08;96722.06;4993784;28;20030;-32
2021/03/09 00:33:47;;;;;;;4.57;2.28;;;;;;;25.41;26.07;96710.72;5000756;28;20053;-36
2021/03/09 00:36:12;;;;;;;3.42;2.15;;;;;;;25.40;25.91;96707.22;5000595;28;20103;-33
2021/03/09 00:38:38;;;;;;;5.28;2.10;;;;;;;25.40;25.99;96709.03;4974597;28;20045;-34
2021/03/09 00:41:03;;;;;;;6.07;2.20;;;;;;;25.38;25.89;96697.75;4976013;28;20363;-32
2021/03/09 00:43:28;;;;;;;4.70;2.10;;;;;;;25.38;26.00;96695.97;4995390;28;20026;-33
2021/03/09 00:45:54;;;;;;;2.95;2.10;;;;;;;25.37;26.12;96699.53;5002476;28;20021;-32
2021/03/09 00:48:19;;;;;;;5.20;2.45;;;;;;;25.37;26.09;96704.78;4995243;28;20030;-30
2021/03/09 00:50:45;;;;;;;7.05;2.40;;;;;;;25.37;26.01;96709.16;5004434;28;20033;-32
2021/03/09 00:53:10;;;;;;;6.22;2.25;;;;;;;25.37;26.10;96701.31;4995906;28;20490;-32
2021/03/09 00:55:35;;;;;;;4.93;1.98;;;;;;;25.37;26.12;96701.31;4998861;28;20025;-35
2021/03/09 00:58:01;;;;;;;6.72;2.25;;;;;;;25.38;25.93;96711.72;5001470;28;20034;-34
2021/03/09 01:00:27;;;;;;;3.70;2.28;;;;;;;25.36;26.12;96710.94;4994348;28;20740;-33
2021/03/09 01:02:53;;;;;;;3.65;2.03;;;;;;;25.36;26.06;96699.63;4998396;28;20022;-33
2021/03/09 01:05:18;;;;;;;3.08;2.15;;;;;;;25.37;25.89;96701.31;4996780;28;20033;-32
2021/03/09 01:07:44;;;;;;;4.03;2.10;;;;;;;25.37;26.08;96696.06;4979425;28;20021;-37
2021/03/09 01:10:10;;;;;;;2.97;1.95;;;;;;;25.37;26.08;96694.28;4983097;28;20398;-33
2021/03/09 01:12:35;;;;;;;4.05;2.22;;;;;;;25.37;26.12;96690.81;4993943;28;20034;-34
2021/03/09 01:15:01;;;;;;;3.38;2.00;;;;;;;25.37;25.95;96701.31;4994222;28;20037;-33
2021/03/09 01:17:26;;;;;;;4.10;2.10;;;;;;;25.36;26.11;96697.81;4992361;28;20026;-32
2021/03/09 01:19:51;;;;;;;3.40;2.00;;;;;;;25.36;25.95;96691.75;4999346;28;20026;-33
2021/03/09 01:22:17;;;;;;;3.05;2.00;;;;;;;25.35;26.06;96696.13;4993169;28;20040;-37
2021/03/09 01:24:42;;;;;;;3.22;2.05;;;;;;;25.35;26.17;96690.06;4990873;28;20021;-34
2021/03/09 01:27:11;;;;;;;2.90;1.98;;;;;;;25.35;26.22;96690.06;4994470;28;20033;-33
2021/03/09 01:29:36;;;;;;;4.47;1.40;;;;;;;25.34;25.97;96686.56;4997692;28;20029;-33
2021/03/09 01:32:02;;;;;;;4.78;2.03;;;;;;;25.35;26.23;96682.19;4996457;28;20034;-33
2021/03/09 01:34:28;;;;;;;4.00;1.90;;;;;;;25.34;25.96;96676.09;4999785;28;20018;-35
2021/03/09 01:36:53;;;;;;;3.08;1.85;;;;;;;25.33;26.17;96674.41;4998955;28;20037;-35
2021/03/09 01:39:19;;;;;;;3.33;2.00;;;;;;;25.34;26.15;96675.22;5003188;28;20025;-36
2021/03/09 01:41:44;;;;;;;2.95;1.67;;;;;;;25.31;26.11;96671.84;4992278;28;20017;-34
2021/03/09 01:44:10;;;;;;;3.75;1.90;;;;;;;25.30;26.13;96666.69;4986471;28;20044;-31
2021/03/09 01:46:35;;;;;;;4.28;1.80;;;;;;;25.30;26.15;96664.91;5003016;28;20028;-33
2021/03/09 01:49:00;;;;;;;3.10;1.90;;;;;;;25.30;25.96;96658.81;4993006;28;20018;-34
2021/03/09 01:51:26;;;;;;;6.45;1.75;;;;;;;25.29;26.21;96660.56;5002489;28;20509;-32
2021/03/09 01:53:51;;;;;;;3.38;1.80;;;;;;;25.28;26.01;96656.28;5002153;28;20029;-34
2021/03/09 01:56:17;;;;;;;2.22;1.60;;;;;;;25.29;25.96;96657.97;4975246;28;20034;-33
2021/03/09 01:58:47;;;;;;;2.20;1.52;;;;;;;25.27;26.24;96654.59;4995410;28;20030;-33
2021/03/09 02:01:13;;;;;;;2.10;1.60;;;;;;;25.26;26.11;96647.66;4994159;28;22363;-33
2021/03/09 02:03:39;;;;;;;3.40;1.73;;;;;;;25.26;26.26;96649.41;4981412;28;20288;-32
2021/03/09 02:06:04;;;;;;;2.70;1.83;;;;;;;25.26;26.16;96647.66;4992828;28;20033;-33
2021/03/09 02:08:30;;;;;;;2.83;1.75;;;;;;;25.26;26.08;96642.41;4999918;28;20045;-32
2021/03/09 02:10:55;;;;;;;2.50;1.48;;;;;;;25.25;26.24;96640.69;5001887;28;20034;-33
2021/03/09 02:13:47;;;;;;;2.65;1.77;;;;;;;25.24;26.09;96639.00;4975464;28;20473;-31
2021/03/09 02:16:29;;;;;;;2.20;1.52;;;;;;;25.24;26.23;96633.75;4998001;28;20042;-35
2021/03/09 02:18:57;;;;;;;2.63;1.58;;;;;;;25.24;26.21;96639.00;4992566;28;20034;-33
2021/03/09 02:21:38;;;;;;;2.08;1.75;;;;;;;25.24;26.05;96638.16;4981649;28;20021;-32
2021/03/09 02:24:27;;;;;;;2.37;1.50;;;;;;;25.23;26.08;96639.94;4993917;28;20080;-32
2021/03/09 02:27:21;;;;;;;2.53;1.60;;;;;;;25.21;26.19;96628.69;4998224;28;20026;-32
2021/03/09 02:29:59;;;;;;;2.78;1.70;;;;;;;25.21;26.13;96622.59;4981134;28;20026;-32
2021/03/09 02:32:24;;;;;;;2.75;1.75;;;;;;;25.20;26.37;96626.97;4995858;28;20042;-32
2021/03/09 02:34:53;;;;;;;3.20;1.52;;;;;;;25.20;26.04;96621.72;5004597;28;20044;-34
2021/03/09 02:37:18;;;;;;;1.88;1.30;;;;;;;25.19;26.13;96614.81;4983329;28;20117;-32
2021/03/09 02:39:45;;;;;;;2.33;1.63;;;;;;;25.20;26.26;96621.72;4980462;28;20041;-36
2021/03/09 02:42:11;;;;;;;1.70;1.58;;;;;;;25.20;26.04;96615.66;4984390;28;20037;-35
2021/03/09 02:44:36;;;;;;;2.70;1.48;;;;;;;25.20;26.21;96620.91;4977827;28;20069;-33
2021/03/09 02:47:02;;;;;;;3.33;1.73;;;;;;;25.20;26.10;96616.50;4979363;28;20057;-31
2021/03/09 02:49:28;;;;;;;1.73;1.40;;;;;;;25.18;26.29;96611.31;4989878;28;20718;-31
2021/03/09 02:51:53;;;;;;;1.80;1.40;;;;;;;25.20;26.23;96618.28;4987117;28;20545;-32
2021/03/09 02:54:19;;;;;;;1.90;1.50;;;;;;;25.19;26.31;96609.56;4987925;28;20055;-34
2021/03/09 02:56:44;;;;;;;1.88;1.35;;;;;;;25.21;26.31;96612.09;4962982;28;20038;-32
2021/03/09 02:59:14;;;;;;;3.10;1.33;;;;;;;25.20;26.29;96613.03;5002975;28;20034;-32
2021/03/09 03:01:43;;;;;;;3.08;1.55;;;;;;;25.19;26.04;96609.56;4981430;28;20168;-32
2021/03/09 03:04:09;;;;;;;1.65;1.25;;;;;;;25.19;26.25;96612.19;4983959;28;20034;-35
2021/03/09 03:06:37;;;;;;;2.67;1.52;;;;;;;25.18;26.25;96607.88;4987177;28;20080;-31
2021/03/09 03:09:03;;;;;;;2.28;1.10;;;;;;;25.19;26.11;96601.69;4965886;28;20034;-35
2021/03/09 03:11:28;;;;;;;2.67;1.33;;;;;;;25.19;26.30;96606.94;4999652;28;20033;-33
2021/03/09 03:13:54;;;;;;;3.10;1.20;;;;;;;25.20;26.63;96606.00;4982580;28;20029;-34
2021/03/09 03:16:19;;;;;;;1.75;1.40;;;;;;;25.20;25.99;96605.16;5005957;28;20532;-33
2021/03/09 03:18:45;;;;;;;2.30;1.50;;;;;;;25.18;26.09;96602.63;4974993;28;20058;-33
2021/03/09 03:21:11;;;;;;;2.40;1.30;;;;;;;25.19;26.28;96604.31;4981577;28;20037;-35
2021/03/09 03:23:37;;;;;;;2.17;1.63;;;;;;;25.17;26.19;96606.19;5001433;28;20013;-32
2021/03/09 03:26:05;;;;;;;1.92;1.45;;;;;;;25.17;26.28;96607.00;4986946;28;20037;-35
2021/03/09 03:28:30;;;;;;;2.42;1.50;;;;;;;25.18;26.14;96605.25;4965374;28;20034;-34
2021/03/09 03:30:56;;;;;;;1.83;1.20;;;;;;;25.16;26.31;96605.31;4981931;28;20526;-33
2021/03/09 03:33:21;;;;;;;2.63;1.38;;;;;;;25.16;26.25;96604.47;4992625;28;20527;-33
2021/03/09 03:35:46;;;;;;;1.30;1.20;;;;;;;25.15;26.20;96603.63;4982123;28;20034;-33
2021/03/09 03:38:15;;;;;;;3.95;1.30;;;;;;;25.15;26.24;96598.41;4968361;28;20025;-34
2021/03/09 03:40:41;;;;;;;2.40;1.33;;;;;;;25.15;26.32;96597.53;4998868;28;20026;-34
2021/03/09 03:43:07;;;;;;;3.15;1.55;;;;;;;25.14;26.17;96601.09;4994852;28;20034;-33
2021/03/09 03:45:32;;;;;;;2.33;1.50;;;;;;;25.13;26.05;96599.41;4999349;28;20025;-31
2021/03/09 03:47:58;;;;;;;1.30;1.17;;;;;;;25.13;26.38;96594.16;4995460;28;20052;-34
2021/03/09 03:50:23;;;;;;;1.77;1.02;;;;;;;25.12;26.17;96597.69;4965392;28;20500;-34
2021/03/09 03:53:16;;;;;;;1.83;1.40;;;;;;;25.12;26.27;96597.69;5002925;28;20050;-33
2021/03/09 03:55:55;;;;;;;2.67;1.30;;;;;;;25.11;26.14;96596.88;5004528;28;20050;-32
2021/03/09 03:58:48;;;;;;;1.80;1.60;;;;;;;25.11;26.25;96602.09;4980291;28;20025;-33
2021/03/09 04:01:14;;;;;;;2.15;1.38;;;;;;;25.12;26.12;96601.16;4989659;28;20030;-35
2021/03/09 04:03:40;;;;;;;1.65;1.33;;;;;;;25.11;26.27;96601.25;5003333;28;20026;-32
2021/03/09 04:06:05;;;;;;;1.58;1.10;;;;;;;25.10;26.20;96595.19;4986254;28;20036;-31
2021/03/09 04:08:32;;;;;;;1.33;1.20;;;;;;;25.11;26.17;96596.00;4979492;28;20175;-32
2021/03/09 04:10:57;;;;;;;2.15;1.13;;;;;;;25.11;26.12;96588.13;4981270;28;20032;-34
2021/03/09 04:13:22;;;;;;;1.98;1.10;;;;;;;25.09;26.11;96588.22;4979778;28;20038;-33
2021/03/09 04:15:48;;;;;;;1.30;1.10;;;;;;;25.09;26.16;96584.78;4985873;28;20057;-33
2021/03/09 04:18:14;;;;;;;1.67;1.13;;;;;;;25.10;26.14;96578.59;4999626;28;20025;-35
2021/03/09 04:20:43;;;;;;;1.17;1.05;;;;;;;25.07;26.38;96579.59;4973938;28;20460;-32
2021/03/09 04:23:08;;;;;;;1.63;1.25;;;;;;;25.09;26.32;96582.97;4972508;28;20061;-34
2021/03/09 04:25:34;;;;;;;1.23;1.13;;;;;;;25.09;26.19;96582.16;4983289;28;20064;-34
2021/03/09 04:28:01;;;;;;;1.27;1.10;;;;;;;25.08;26.24;96583.91;5005093;28;20042;-31
2021/03/09 04:30:26;;;;;;;1.40;1.00;;;;;;;25.07;26.18;96582.22;4969776;28;20986;-32
2021/03/09 04:32:52;;;;;;;1.25;1.00;;;;;;;25.07;26.04;96584.84;4963662;28;20026;-32
2021/03/09 04:35:17;;;;;;;0.90;0.82;;;;;;;25.07;26.30;96589.22;4977854;28;20036;-31
2021/03/09 04:37:43;;;;;;;2.22;1.27;;;;;;;25.06;26.30;96583.16;4998736;28;20101;-31
2021/03/09 04:40:09;;;;;;;1.70;1.00;;;;;;;25.06;26.12;96588.41;4990326;28;20302;-31
2021/03/09 04:42:35;;;;;;;2.25;1.00;;;;;;;25.06;26.38;96588.41;4978277;28;20021;-32
2021/03/09 04:45:00;;;;;;;1.67;1.20;;;;;;;25.05;26.04;96587.53;4999679;28;20037;-34
2021/03/09 04:47:26;;;;;;;1.88;1.08;;;;;;;25.04;26.28;96585.00;4974222;28;20021;-31
2021/03/09 04:49:55;;;;;;;1.60;1.08;;;;;;;25.04;26.32;96580.63;4978603;28;20029;-32
2021/03/09 04:52:22;;;;;;;1.10;1.00;;;;;;;25.01;26.19;96575.53;4964884;28;20053;-33
2021/03/09 04:54:47;;;;;;;1.65;1.17;;;;;;;25.03;26.38;96572.81;4986694;28;20562;-34
2021/03/09 04:57:12;;;;;;;1.35;1.10;;;;;;;25.04;26.19;96585.00;4968086;28;20041;-34
2021/03/09 04:59:38;;;;;;;1.73;1.20;;;;;;;25.04;26.18;96585.84;4995820;28;20025;-33
2021/03/09 05:02:03;;;;;;;1.38;0.98;;;;;;;25.04;26.30;96582.38;4991521;28;20042;-34
2021/03/09 05:04:28;;;;;;;1.17;1.00;;;;;;;25.03;26.28;96589.41;5003213;28;20037;-32
2021/03/09 05:06:54;;;;;;;1.10;1.00;;;;;;;25.03;26.27;96583.31;4978339;28;20038;-32
2021/03/09 05:09:19;;;;;;;1.25;0.98;;;;;;;25.03;26.35;96578.94;5003081;28;20030;-34
2021/03/09 05:11:45;;;;;;;1.58;1.05;;;;;;;25.03;26.36;96578.94;5000710;28;20531;-33
2021/03/09 05:14:10;;;;;;;1.20;0.90;;;;;;;25.03;26.22;96588.56;4996250;28;20502;-32
2021/03/09 05:16:35;;;;;;;0.88;0.88;;;;;;;25.02;26.35;96592.13;4996443;28;20738;-30
2021/03/09 05:19:01;;;;;;;1.08;0.85;;;;;;;25.01;26.39;96593.00;5000362;28;20025;-31
2021/03/09 05:21:26;;;;;;;1.02;0.93;;;;;;;25.01;26.39;96599.13;5002117;28;20458;-36
2021/03/09 05:23:52;;;;;;;1.48;1.17;;;;;;;25.00;26.23;96589.56;5000682;28;20025;-33
2021/03/09 05:26:17;;;;;;;1.30;1.10;;;;;;;25.01;26.39;96598.25;4998337;28;20030;-32
2021/03/09 05:28:42;;;;;;;1.58;1.10;;;;;;;25.00;26.41;96600.06;4998009;28;20034;-34
2021/03/09 05:31:08;;;;;;;1.00;0.90;;;;;;;25.00;26.34;96594.81;5001532;28;20022;-35
2021/03/09 05:33:33;;;;;;;1.58;0.90;;;;;;;25.00;26.12;96594.81;4997022;28;20450;-32
2021/03/09 05:35:59;;;;;;;0.95;0.85;;;;;;;25.00;26.31;96594.81;5003024;28;20033;-34
2021/03/09 05:38:24;;;;;;;1.05;0.85;;;;;;;25.00;26.31;96589.56;4999903;28;20034;-34
2021/03/09 05:40:49;;;;;;;2.15;1.00;;;;;;;25.01;26.32;96596.50;4996623;28;20026;-32
2021/03/09 05:43:15;;;;;;;1.75;1.17;;;;;;;25.01;26.34;96599.13;4980276;28;20041;-32
2021/03/09 05:45:40;;;;;;;4.05;1.10;;;;;;;25.01;26.29;96596.50;4981921;28;20474;-33
2021/03/09 05:48:06;;;;;;;1.52;1.10;;;;;;;25.01;26.21;96593.88;4985413;28;20509;-32
2021/03/09 05:50:32;;;;;;;0.95;0.88;;;;;;;25.01;26.12;96601.75;4996164;28;20041;-33
2021/03/09 05:52:57;;;;;;;0.80;0.80;;;;;;;25.01;26.21;96604.38;4998138;28;21519;-34
2021/03/09 05:55:22;;;;;;;3.10;1.10;;;;;;;25.02;26.06;96602.59;5001554;28;20034;-32
2021/03/09 05:57:48;;;;;;;1.10;0.95;;;;;;;25.02;26.27;96606.06;4998913;28;20037;-34
2021/03/09 06:00:14;;;;;;;1.30;0.88;;;;;;;25.02;26.12;96607.84;4999421;28;20538;-34
2021/03/09 06:02:40;;;;;;;0.98;0.88;;;;;;;25.01;26.39;96607.00;4998330;28;20080;-32
2021/03/09 06:05:06;;;;;;;1.48;1.25;;;;;;;25.01;26.06;96606.13;4987882;28;20030;-32
2021/03/09 06:07:32;;;;;;;1.73;1.00;;;;;;;25.00;26.13;96600.06;5001387;28;20033;-30
2021/03/09 06:09:57;;;;;;;1.45;1.00;;;;;;;25.00;26.18;96607.91;4988701;28;20041;-33
2021/03/09 06:12:24;;;;;;;2.92;1.17;;;;;;;24.99;26.29;96608.84;5000376;28;20025;-31
2021/03/09 06:14:56;;;;;;;0.80;0.80;;;;;;;25.00;26.40;96600.06;4986538;28;20022;-32
2021/03/09 06:17:26;;;;;;;1.00;0.80;;;;;;;25.01;26.07;96607.00;5001343;28;20029;-34
2021/03/09 06:19:51;;;;;;;1.52;1.20;;;;;;;25.01;26.09;96612.22;4988386;28;20034;-31
2021/03/09 06:22:17;;;;;;;0.95;0.85;;;;;;;25.02;26.19;96607.84;4999241;28;20102;-35
2021/03/09 06:24:43;;;;;;;1.80;1.00;;;;;;;25.02;26.26;96613.09;4964553;28;20030;-33
2021/03/09 06:27:22;;;;;;;3.40;0.95;;;;;;;25.01;26.26;96609.59;4987569;28;20038;-31
2021/03/09 06:29:48;;;;;;;2.30;1.10;;;;;;;25.02;26.16;96608.66;4985829;28;20034;-32
2021/03/09 06:32:13;;;;;;;1.45;1.00;;;;;;;25.03;26.17;96609.53;5002197;28;20033;-32
2021/03/09 06:34:39;;;;;;;2.15;1.00;;;;;;;25.02;26.31;96598.19;5000844;28;22710;-33
2021/03/09 06:37:10;;;;;;;1.45;0.95;;;;;;;25.02;26.09;96606.06;5000507;28;20025;-32
2021/03/09 06:39:45;;;;;;;;;;;;;;;25.03;26.12;96605.16;5001855;28;20499;-34
2021/03/09 06:42:11;;;;;;;1.30;1.00;;;;;;;25.03;26.09;96605.16;4996960;28;19971;-35
2021/03/09 06:44:36;;;;;;;1.73;0.98;;;;;;;25.02;26.16;96606.06;4988018;28;20613;-35
2021/03/09 06:47:02;;;;;;;1.52;1.00;;;;;;;25.03;26.08;96610.38;4979348;28;20037;-35
2021/03/09 06:49:27;;;;;;;1.33;0.98;;;;;;;25.01;26.10;96604.38;4998394;28;20072;-33
2021/03/09 06:51:53;;;;;;;3.15;1.17;;;;;;;25.03;26.25;96605.16;5002676;28;20030;-33
2021/03/09 06:54:18;;;;;;;0.90;0.88;;;;;;;25.04;26.10;96606.84;5001412;28;20026;-33
2021/03/09 06:56:45;;;;;;;2.75;1.17;;;;;;;25.04;26.06;96612.06;4980649;28;20033;-34
2021/03/09 06:59:24;;;;;;;2.05;1.23;;;;;;;25.04;26.02;96611.22;5003594;28;20050;-36
2021/03/09 07:02:09;;;;;;;1.33;1.00;;;;;;;25.06;26.12;96617.25;5000143;28;20125;-35
2021/03/09 07:04:36;;;;;;;2.65;1.25;;;;;;;25.08;26.22;96622.38;5002894;28;20049;-33
2021/03/09 07:07:02;;;;;;;1.10;1.00;;;;;;;25.07;26.06;96615.44;5001156;28;20030;-32
2021/03/09 07:09:27;;;;;;;1.25;1.00;;;;;;;25.08;26.26;96625.00;5000355;28;20022;-33
2021/03/09 07:11:53;;;;;;;2.03;1.15;;;;;;;25.08;26.06;96622.38;5003794;28;20026;-32
2021/03/09 07:14:18;;;;;;;2.70;1.17;;;;;;;25.10;26.00;96631.03;4994884;28;20032;-34
2021/03/09 07:16:48;;;;;;;1.35;1.15;;;;;;;25.09;26.24;96627.53;4983490;28;20029;-32
2021/03/09 07:19:23;;;;;;;1.70;1.23;;;;;;;25.10;26.13;96631.88;5005290;28;20048;-33
2021/03/09 07:21:49;;;;;;;3.28;1.23;;;;;;;25.10;26.17;96625.78;4995726;28;20030;-33
2021/03/09 07:24:15;;;;;;;2.38;1.25;;;;;;;25.11;25.99;96630.94;4969338;28;20022;-31
2021/03/09 07:26:40;;;;;;;1.25;0.90;;;;;;;25.12;25.97;96637.03;4969101;28;20441;-32
2021/03/09 07:29:05;;;;;;;1.65;1.23;;;;;;;25.13;25.93;96630.88;4983128;28;20457;-31
2021/03/09 07:31:31;;;;;;;1.50;1.20;;;;;;;25.13;26.22;96638.75;4964640;28;20048;-31
2021/03/09 07:33:56;;;;;;;2.75;1.20;;;;;;;25.13;26.15;96628.25;4967718;28;20022;-35
2021/03/09 07:36:23;;;;;;;1.67;1.08;;;;;;;25.15;26.12;96634.25;4965089;28;20018;-32
2021/03/09 07:38:48;;;;;;;2.05;1.30;;;;;;;25.15;26.17;96634.25;5000702;28;20025;-33
2021/03/09 07:41:14;;;;;;;2.35;1.27;;;;;;;25.15;25.97;96635.09;5005916;28;20521;-33
2021/03/09 07:43:39;;;;;;;1.95;1.40;;;;;;;25.15;26.01;96634.25;4955577;28;20018;-30
2021/03/09 07:46:08;;;;;;;2.35;1.25;;;;;;;25.15;26.18;96639.50;4993706;28;20456;-33
2021/03/09 07:48:33;;;;;;;4.70;1.65;;;;;;;25.15;26.22;96631.63;4980786;28;20040;-32
2021/03/09 07:51:03;;;;;;;12.38;3.20;;;;;;;25.15;25.76;96634.25;4976729;28;20030;-31
2021/03/09 07:53:29;;;;;;;9.60;2.60;;;;;;;25.14;25.54;96643.06;4995760;28;20539;-32
2021/03/09 07:56:03;;;;;;;12.15;3.85;;;;;;;25.11;24.07;96646.69;4997107;28;20034;-32
2021/03/09 07:58:28;;;;;;;3.83;2.08;;;;;;;25.05;25.16;96639.97;4990979;28;20034;-31
2021/03/09 08:01:03;;;;;;;6.45;4.40;;;;;;;25.05;24.15;96644.38;4995584;28;21196;-31
2021/03/09 08:03:39;;;;;;;7.88;5.07;;;;;;;24.99;22.62;96644.69;4979731;28;20032;-32
2021/03/09 08:06:05;;;;;;;10.15;5.22;;;;;;;24.94;22.37;96644.94;4981941;28;20037;-30
2021/03/09 08:08:46;;;;;;;7.22;4.40;;;;;;;24.88;22.28;96642.63;4991472;28;20125;-31
2021/03/09 08:11:27;;;;;;;6.70;4.72;;;;;;;24.82;22.29;96642.94;4993174;28;20034;-33
2021/03/09 08:14:04;;;;;;;15.48;5.05;;;;;;;24.76;22.57;96639.69;5000427;28;20030;-33
2021/03/09 08:16:33;;;;;;;9.98;5.57;;;;;;;24.72;22.08;96648.66;4996676;28;20294;-32
2021/03/09 08:18:59;;;;;;;7.25;5.35;;;;;;;24.68;22.16;96641.88;4993937;28;20028;-33
2021/03/09 08:21:46;;;;;;;12.27;5.10;;;;;;;24.64;22.19;96640.31;4998332;28;20029;-32
2021/03/09 08:24:12;;;;;;;7.30;5.00;;;;;;;24.62;22.15;96650.00;4996874;28;20032;-33
2021/03/09 08:26:38;;;;;;;6.75;4.95;;;;;;;24.60;22.54;96649.25;4997540;28;20402;-34
2021/03/09 08:29:20;;;;;;;9.05;5.18;;;;;;;24.56;22.18;96642.47;4992788;28;20041;-32
2021/03/09 08:31:45;;;;;;;11.35;5.57;;;;;;;24.53;22.34;96648.72;4964611;28;20100;-31
2021/03/09 08:34:13;;;;;;;7.85;5.38;;;;;;;24.53;22.27;96649.56;4979637;28;21157;-35
2021/03/09 08:36:39;;;;;;;9.65;5.63;;;;;;;24.51;22.34;96651.41;4993794;28;20033;-31
2021/03/09 08:41:42;;;;;;;8.80;6.20;;;;;;;24.46;22.14;96650.81;4995402;28;20253;-32
2021/03/09 08:44:13;;;;;;;7.25;5.60;;;;;;;24.44;22.01;96655.25;4995227;28;20076;-34
2021/03/09 08:46:59;;;;;;;11.48;5.10;;;;;;;24.42;22.27;96651.88;4996559;28;20035;-33
2021/03/09 08:49:33;;;;;;;11.07;5.68;;;;;;;24.40;22.40;96653.72;4992844;28;20034;-33
2021/03/09 08:51:59;;;;;;;11.13;5.65;;;;;;;24.39;22.55;96638.94;4997163;28;20036;-35
2021/03/09 08:54:46;;;;;;;10.93;5.82;;;;;;;24.37;22.26;96641.63;4973391;28;20033;-32
2021/03/09 08:57:17;;;;;;;11.10;5.78;;;;;;;24.35;22.28;96645.22;4993863;28;20037;-35
2021/03/09 08:59:43;;;;;;;13.85;5.63;;;;;;;24.34;22.39;96639.16;4994752;28;20057;-33
2021/03/09 09:02:15;;;;;;;13.02;5.90;;;;;;;24.34;22.32;96640.94;4992599;28;20834;-36
2021/03/09 09:04:45;;;;;;;13.60;5.80;;;;;;;24.33;22.44;96634.84;4995152;28;20575;-32
2021/03/09 09:07:17;;;;;;;13.35;5.50;;;;;;;24.32;22.38;96629.69;4995835;28;20450;-31
2021/03/09 09:09:42;;;;;;;16.90;5.78;;;;;;;24.32;22.56;96630.53;4975409;28;20022;-31
2021/03/09 09:12:20;;;;;;;13.23;5.35;;;;;;;24.32;22.45;96634.94;4993535;28;20036;-34
2021/03/09 09:14:46;;;;;;;11.52;5.90;;;;;;;24.32;22.52;96624.47;4994029;28;20086;-32
2021/03/09 09:17:12;;;;;;;16.75;6.03;;;;;;;24.30;22.39;96628.91;4963490;28;20038;-35
2021/03/09 09:19:37;;;;;;;13.77;5.68;;;;;;;24.30;22.35;96624.53;4979270;28;20079;-32
2021/03/09 09:22:03;;;;;;;20.73;7.18;;;;;;;24.25;21.16;96627.38;4995576;28;20037;-32
2021/03/09 09:24:31;;;;;;;30.20;9.38;;;;;;;24.12;19.66;96629.75;4970994;28;20581;-31
2021/03/09 09:26:59;;;;;;;17.88;9.20;;;;;;;23.92;18.79;96627.22;5000132;28;20473;-35
2021/03/09 09:29:25;;;;;;;19.42;8.68;;;;;;;23.71;18.52;96633.38;4993877;28;20117;-30
2021/03/09 09:31:58;;;;;;;15.52;8.68;;;;;;;23.49;18.06;96631.78;4997449;28;20030;-30
2021/03/09 09:34:34;;;;;;;19.83;8.60;;;;;;;23.26;18.44;96624.09;4993302;28;20034;-32
2021/03/09 09:37:16;;;;;;;11.73;6.43;;;;;;;23.12;19.07;96620.34;4994652;28;20091;-33
2021/03/09 09:39:42;;;;;;;10.00;5.28;;;;;;;23.08;20.07;96626.63;4995178;28;20036;-35
2021/03/09 09:42:18;;;;;;;6.82;4.55;;;;;;;23.08;20.80;96621.41;4999848;28;20708;-33
2021/03/09 09:44:43;;;;;;;7.75;4.05;;;;;;;23.13;21.23;96619.44;4981583;28;20398;-32
2021/03/09 09:47:09;;;;;;;13.77;3.70;;;;;;;23.18;21.90;96625.28;4982201;28;20034;-32
2021/03/09 09:49:36;;;;;;;9.23;3.83;;;;;;;23.28;21.76;96623.13;4982151;28;20025;-34
2021/03/09 09:52:01;;;;;;;10.27;3.35;;;;;;;23.37;22.14;96627.09;4983448;28;20547;-33
2021/03/09 09:54:26;;;;;;;4.88;2.78;;;;;;;23.46;22.36;96626.66;4981874;28;20045;-32
2021/03/09 09:56:52;;;;;;;4.13;3.00;;;;;;;23.55;22.53;96630.66;4977466;28;20107;-32
2021/03/09 09:59:27;;;;;;;5.65;2.47;;;;;;;23.66;22.60;96626.66;5000966;28;20021;-34
2021/03/09 10:01:52;;;;;;;7.18;2.78;;;;;;;23.75;22.77;96626.22;4983366;28;20107;-33
2021/03/09 10:04:18;;;;;;;7.25;2.30;;;;;;;23.83;22.94;96628.50;4984668;28;20018;-34
2021/03/09 10:06:47;;;;;;;9.40;2.17;;;;;;;23.91;23.00;96623.72;4996242;28;20052;-33
2021/03/09 10:09:25;;;;;;;7.15;2.30;;;;;;;24.00;23.27;96630.31;4992919;28;20034;-33
2021/03/09 10:11:58;;;;;;;7.53;2.35;;;;;;;24.09;23.48;96626.38;4999777;28;20034;-32
2021/03/09 10:14:27;;;;;;;11.43;3.10;;;;;;;24.16;23.26;96624.34;5001525;28;20591;-31
2021/03/09 10:16:53;;;;;;;12.77;3.47;;;;;;;24.22;23.52;96618.81;4985038;28;20037;-34
2021/03/09 10:19:21;;;;;;;13.32;2.78;;;;;;;24.29;23.78;96629.84;4991526;28;20030;-33
2021/03/09 10:21:54;;;;;;;14.45;2.72;;;;;;;24.36;23.59;96615.50;4996841;28;20026;-34
2021/03/09 10:24:26;;;;;;;9.50;2.70;;;;;;;24.40;23.79;96630.13;4997918;28;20022;-33
2021/03/09 10:26:52;;;;;;;7.28;2.60;;;;;;;24.45;23.63;96622.91;4999124;28;20036;-35
2021/03/09 10:29:21;;;;;;;9.90;2.30;;;;;;;24.50;24.05;96626.16;4971681;28;20029;-34
2021/03/09 10:31:59;;;;;;;12.70;2.20;;;;;;;24.56;24.02;96616.28;4997401;28;20061;-32
2021/03/09 10:34:42;;;;;;;4.32;2.08;;;;;;;24.61;24.09;96614.28;4996484;28;20030;-31
2021/03/09 10:37:14;;;;;;;5.78;1.92;;;;;;;24.66;24.09;96617.50;4995649;28;20037;-31
2021/03/09 10:39:53;;;;;;;7.65;1.70;;;;;;;24.70;24.12;96608.56;4997770;28;20402;-31
2021/03/09 10:42:36;;;;;;;6.65;1.80;;;;;;;24.74;24.85;96612.72;4983091;28;20505;-36
2021/03/09 10:45:18;;;;;;;11.57;2.10;;;;;;;24.80;24.59;96599.28;4948306;28;20044;-37
2021/03/09 10:47:47;;;;;;;6.10;1.70;;;;;;;24.85;24.33;96600.84;4963880;28;20026;-32
2021/03/09 10:50:13;;;;;;;5.10;1.80;;;;;;;24.89;24.31;96597.13;4977065;28;20030;-37
2021/03/09 10:52:38;;;;;;;7.68;1.85;;;;;;;24.92;24.34;96594.38;4963971;28;20014;-33
2021/03/09 10:55:04;;;;;;;4.03;1.60;;;;;;;24.96;24.68;96595.91;4996371;28;20481;-36
2021/03/09 10:57:29;;;;;;;6.68;2.08;;;;;;;24.98;24.58;96591.41;4994829;28;20530;-33
2021/03/09 10:59:55;;;;;;;5.82;1.90;;;;;;;25.02;24.86;96597.34;4992355;28;20042;-36
2021/03/09 11:02:20;;;;;;;4.68;1.95;;;;;;;25.05;24.61;96597.16;4965980;28;20036;-32
2021/03/09 11:04:46;;;;;;;3.00;1.90;;;;;;;25.08;24.55;96601.41;4961467;28;20025;-33
2021/03/09 11:07:11;;;;;;;6.50;2.22;;;;;;;25.11;24.47;96609.13;4992559;28;20481;-33
2021/03/09 11:09:36;;;;;;;6.00;1.90;;;;;;;25.14;24.49;96603.72;4991238;28;20029;-31
2021/03/09 11:12:02;;;;;;;4.70;2.03;;;;;;;25.15;24.79;96602.78;4993143;28;20028;-32
2021/03/09 11:14:27;;;;;;;8.50;2.35;;;;;;;25.17;24.54;96595.69;4994830;28;20947;-32
2021/03/09 11:16:53;;;;;;;5.03;2.22;;;;;;;25.18;24.63;96597.38;4994870;28;20033;-33
2021/03/09 11:19:18;;;;;;;7.43;2.50;;;;;;;25.20;25.06;96600.75;4993436;28;20480;-33
2021/03/09 11:21:44;;;;;;;3.75;1.88;;;;;;;25.21;24.85;96591.97;4996394;28;20490;-33
2021/03/09 11:24:09;;;;;;;4.88;1.55;;;;;;;25.22;25.03;96588.44;4997169;28;20666;-33
2021/03/09 11:26:35;;;;;;;4.60;2.10;;;;;;;25.24;24.82;96591.78;4995973;28;20033;-32
2021/03/09 11:29:00;;;;;;;3.10;1.63;;;;;;;25.23;24.84;96590.09;4993158;28;20660;-32
2021/03/09 11:31:26;;;;;;;3.30;1.90;;;;;;;25.24;25.08;96586.56;4997098;28;20598;-32
2021/03/09 11:33:52;;;;;;;3.25;1.80;;;;;;;25.26;25.05;96592.56;4998599;28;20052;-31
2021/03/09 11:36:18;;;;;;;4.10;1.67;;;;;;;25.26;25.21;96584.72;4995530;28;20109;-32
2021/03/09 11:38:44;;;;;;;3.55;1.65;;;;;;;25.29;26.00;96595.00;4972227;28;20028;-31